sensor_id;sensor_type;location;lat;lon;timestamp;temperature;humidity
18506;DHT22;9382;53.242;10.438;2023-04-30T00:01:00;5.10;99.90
18506;DHT22;9382;53.242;10.438;2023-04-30T00:03:27;5.10;99.90
18506;DHT22;9382;53.242;10.438;2023-04-30T00:05:54;5.00;99.90
18506;DHT22;9382;53.242;10.438;2023-04-30T00:08:23;5.00;99.90
18506;DHT22;9382;53.242;10.438;2023-04-30T00:10:49;5.00;99.90
18506;DHT22;9382;53.242;10.438;2023-04-30T00:13:16;4.90;99.90
18506;DHT22;9382;53.242;10.438;2023-04-30T00:15:43;4.90;99.90
18506;DHT22;9382;53.242;10.438;2023-04-30T00:18:10;4.90;99.90
18506;DHT22;9382;53.242;10.438;2023-04-30T00:20:37;4.80;99.90
18506;DHT22;9382;53.242;10.438;2023-04-30T00:23:03;4.80;99.90
18506;DHT22;9382;53.242;10.438;2023-04-30T00:25:31;4.80;99.90
18506;DHT22;9382;53.242;10.438;2023-04-30T00:27:58;4.80;99.90
18506;DHT22;9382;53.242;10.438;2023-04-30T00:30:25;4.80;99.90
18506;DHT22;9382;53.242;10.438;2023-04-30T00:32:51;4.70;99.90
18506;DHT22;9382;53.242;10.438;2023-04-30T00:35:18;4.70;99.90
18506;DHT22;9382;53.242;10.438;2023-04-30T00:37:45;4.70;99.90
18506;DHT22;9382;53.242;10.438;2023-04-30T00:40:12;4.60;99.90
18506;DHT22;9382;53.242;10.438;2023-04-30T00:42:40;4.60;99.90
18506;DHT22;9382;53.242;10.438;2023-04-30T00:45:08;4.50;99.90
18506;DHT22;9382;53.242;10.438;2023-04-30T00:47:34;4.50;99.90
18506;DHT22;9382;53.242;10.438;2023-04-30T00:50:01;4.50;99.90
18506;DHT22;9382;53.242;10.438;2023-04-30T00:52:28;4.40;99.90
18506;DHT22;9382;53.242;10.438;2023-04-30T00:54:55;4.40;99.90
18506;DHT22;9382;53.242;10.438;2023-04-30T00:57:22;4.40;99.90
18506;DHT22;9382;53.242;10.438;2023-04-30T00:59:52;4.40;99.90
18506;DHT22;9382;53.242;10.438;2023-04-30T01:02:20;4.30;99.90
18506;DHT22;9382;53.242;10.438;2023-04-30T01:04:46;4.30;99.90
18506;DHT22;9382;53.242;10.438;2023-04-30T01:07:13;4.30;99.90
18506;DHT22;9382;53.242;10.438;2023-04-30T01:09:40;4.20;99.90
18506;DHT22;9382;53.242;10.438;2023-04-30T01:12:12;4.20;99.90
18506;DHT22;9382;53.242;10.438;2023-04-30T01:14:52;4.20;99.90
18506;DHT22;9382;53.242;10.438;2023-04-30T01:17:27;4.10;99.90
18506;DHT22;9382;53.242;10.438;2023-04-30T01:19:56;4.10;99.90
18506;DHT22;9382;53.242;10.438;2023-04-30T01:22:35;4.00;99.90
18506;DHT22;9382;53.242;10.438;2023-04-30T01:25:11;4.00;99.90
18506;DHT22;9382;53.242;10.438;2023-04-30T01:28:03;4.00;99.90
18506;DHT22;9382;53.242;10.438;2023-04-30T01:30:31;3.90;99.90
18506;DHT22;9382;53.242;10.438;2023-04-30T01:32:58;3.90;99.90
18506;DHT22;9382;53.242;10.438;2023-04-30T01:35:34;3.80;99.90
18506;DHT22;9382;53.242;10.438;2023-04-30T01:38:09;3.80;99.90
18506;DHT22;9382;53.242;10.438;2023-04-30T01:40:43;3.70;99.90
18506;DHT22;9382;53.242;10.438;2023-04-30T01:43:19;3.70;99.90
18506;DHT22;9382;53.242;10.438;2023-04-30T01:45:58;3.70;99.90
18506;DHT22;9382;53.242;10.438;2023-04-30T01:48:36;3.60;99.90
18506;DHT22;9382;53.242;10.438;2023-04-30T01:53:50;3.50;99.90
18506;DHT22;9382;53.242;10.438;2023-04-30T01:56:26;3.50;99.90
18506;DHT22;9382;53.242;10.438;2023-04-30T01:58:54;3.50;99.90
18506;DHT22;9382;53.242;10.438;2023-04-30T02:01:26;3.40;99.90
18506;DHT22;9382;53.242;10.438;2023-04-30T02:03:53;3.40;99.90
18506;DHT22;9382;53.242;10.438;2023-04-30T02:06:20;3.40;99.90
18506;DHT22;9382;53.242;10.438;2023-04-30T02:08:47;3.30;99.90
18506;DHT22;9382;53.242;10.438;2023-04-30T02:11:13;3.30;99.90
18506;DHT22;9382;53.242;10.438;2023-04-30T02:13:40;3.30;99.90
18506;DHT22;9382;53.242;10.438;2023-04-30T02:16:08;3.20;99.90
18506;DHT22;9382;53.242;10.438;2023-04-30T02:18:35;3.20;99.90
18506;DHT22;9382;53.242;10.438;2023-04-30T02:21:02;3.20;99.90
18506;DHT22;9382;53.242;10.438;2023-04-30T02:23:29;3.10;99.90
18506;DHT22;9382;53.242;10.438;2023-04-30T02:25:55;3.00;99.90
18506;DHT22;9382;53.242;10.438;2023-04-30T02:28:22;3.00;99.90
18506;DHT22;9382;53.242;10.438;2023-04-30T02:30:49;3.00;99.90
18506;DHT22;9382;53.242;10.438;2023-04-30T02:33:17;3.00;99.90
18506;DHT22;9382;53.242;10.438;2023-04-30T02:35:44;2.90;99.90
18506;DHT22;9382;53.242;10.438;2023-04-30T02:38:11;2.90;99.90
18506;DHT22;9382;53.242;10.438;2023-04-30T02:40:39;2.80;99.90
18506;DHT22;9382;53.242;10.438;2023-04-30T02:43:06;2.80;99.90
18506;DHT22;9382;53.242;10.438;2023-04-30T02:45:33;2.80;99.90
18506;DHT22;9382;53.242;10.438;2023-04-30T02:48:00;2.70;99.90
18506;DHT22;9382;53.242;10.438;2023-04-30T02:50:28;2.70;99.90
18506;DHT22;9382;53.242;10.438;2023-04-30T02:52:55;2.70;99.90
18506;DHT22;9382;53.242;10.438;2023-04-30T02:55:22;2.70;99.90
18506;DHT22;9382;53.242;10.438;2023-04-30T02:57:48;2.70;99.90
18506;DHT22;9382;53.242;10.438;2023-04-30T03:00:15;2.60;99.90
18506;DHT22;9382;53.242;10.438;2023-04-30T03:02:42;2.60;99.90
18506;DHT22;9382;53.242;10.438;2023-04-30T03:05:10;2.60;99.90
18506;DHT22;9382;53.242;10.438;2023-04-30T03:07:38;2.60;99.90
18506;DHT22;9382;53.242;10.438;2023-04-30T03:10:05;2.60;99.90
18506;DHT22;9382;53.242;10.438;2023-04-30T03:12:32;2.50;99.90
18506;DHT22;9382;53.242;10.438;2023-04-30T03:15:00;2.50;99.90
18506;DHT22;9382;53.242;10.438;2023-04-30T03:17:27;2.40;99.90
18506;DHT22;9382;53.242;10.438;2023-04-30T03:19:54;2.40;99.90
18506;DHT22;9382;53.242;10.438;2023-04-30T03:22:21;2.40;99.90
18506;DHT22;9382;53.242;10.438;2023-04-30T03:24:49;2.40;99.90
18506;DHT22;9382;53.242;10.438;2023-04-30T03:27:16;2.30;99.90
18506;DHT22;9382;53.242;10.438;2023-04-30T03:29:43;2.30;99.90
18506;DHT22;9382;53.242;10.438;2023-04-30T03:32:09;2.30;99.90
18506;DHT22;9382;53.242;10.438;2023-04-30T03:34:37;2.30;99.90
18506;DHT22;9382;53.242;10.438;2023-04-30T03:37:03;2.20;99.90
18506;DHT22;9382;53.242;10.438;2023-04-30T03:39:30;2.20;99.90
18506;DHT22;9382;53.242;10.438;2023-04-30T03:41:58;2.20;99.90
18506;DHT22;9382;53.242;10.438;2023-04-30T03:44:26;2.20;99.90
18506;DHT22;9382;53.242;10.438;2023-04-30T03:46:52;2.10;99.90
18506;DHT22;9382;53.242;10.438;2023-04-30T03:49:19;2.10;99.90
18506;DHT22;9382;53.242;10.438;2023-04-30T03:51:46;2.10;99.90
18506;DHT22;9382;53.242;10.438;2023-04-30T03:54:12;2.10;99.90
18506;DHT22;9382;53.242;10.438;2023-04-30T03:56:39;2.10;99.90
18506;DHT22;9382;53.242;10.438;2023-04-30T03:59:07;2.10;99.90
18506;DHT22;9382;53.242;10.438;2023-04-30T04:01:34;2.10;99.90
18506;DHT22;9382;53.242;10.438;2023-04-30T04:04:01;2.00;99.90
18506;DHT22;9382;53.242;10.438;2023-04-30T04:06:28;2.00;99.90
18506;DHT22;9382;53.242;10.438;2023-04-30T04:08:55;2.00;99.90
18506;DHT22;9382;53.242;10.438;2023-04-30T04:11:21;2.00;99.90
18506;DHT22;9382;53.242;10.438;2023-04-30T04:13:48;2.00;99.90
18506;DHT22;9382;53.242;10.438;2023-04-30T04:16:16;2.10;99.90
18506;DHT22;9382;53.242;10.438;2023-04-30T04:18:43;2.10;99.90
18506;DHT22;9382;53.242;10.438;2023-04-30T04:21:10;2.10;99.90
18506;DHT22;9382;53.242;10.438;2023-04-30T04:23:37;2.10;99.90
18506;DHT22;9382;53.242;10.438;2023-04-30T04:26:04;2.10;99.90
18506;DHT22;9382;53.242;10.438;2023-04-30T04:28:30;2.20;99.90
18506;DHT22;9382;53.242;10.438;2023-04-30T04:30:57;2.20;99.90
18506;DHT22;9382;53.242;10.438;2023-04-30T04:33:25;2.30;99.90
18506;DHT22;9382;53.242;10.438;2023-04-30T04:35:52;2.30;99.90
18506;DHT22;9382;53.242;10.438;2023-04-30T04:38:19;2.30;99.90
18506;DHT22;9382;53.242;10.438;2023-04-30T04:40:50;2.30;99.90
18506;DHT22;9382;53.242;10.438;2023-04-30T04:43:17;2.30;99.90
18506;DHT22;9382;53.242;10.438;2023-04-30T04:45:44;2.40;99.90
18506;DHT22;9382;53.242;10.438;2023-04-30T04:48:11;2.50;99.90
18506;DHT22;9382;53.242;10.438;2023-04-30T04:50:39;2.50;99.90
18506;DHT22;9382;53.242;10.438;2023-04-30T04:53:06;2.60;99.90
18506;DHT22;9382;53.242;10.438;2023-04-30T04:55:33;2.60;99.90
18506;DHT22;9382;53.242;10.438;2023-04-30T04:58:00;2.70;99.90
18506;DHT22;9382;53.242;10.438;2023-04-30T05:00:27;2.70;99.90
18506;DHT22;9382;53.242;10.438;2023-04-30T05:02:54;2.80;99.90
18506;DHT22;9382;53.242;10.438;2023-04-30T05:05:21;2.90;99.90
18506;DHT22;9382;53.242;10.438;2023-04-30T05:07:49;3.00;99.90
18506;DHT22;9382;53.242;10.438;2023-04-30T05:10:17;3.10;99.90
18506;DHT22;9382;53.242;10.438;2023-04-30T05:12:44;3.10;99.90
18506;DHT22;9382;53.242;10.438;2023-04-30T05:15:10;3.30;99.90
18506;DHT22;9382;53.242;10.438;2023-04-30T05:17:37;3.30;99.90
18506;DHT22;9382;53.242;10.438;2023-04-30T05:20:05;3.40;99.90
18506;DHT22;9382;53.242;10.438;2023-04-30T05:22:33;3.50;99.90
18506;DHT22;9382;53.242;10.438;2023-04-30T05:25:01;3.50;99.90
18506;DHT22;9382;53.242;10.438;2023-04-30T05:27:28;3.60;99.90
18506;DHT22;9382;53.242;10.438;2023-04-30T05:29:55;3.70;99.90
18506;DHT22;9382;53.242;10.438;2023-04-30T05:32:21;3.80;99.90
18506;DHT22;9382;53.242;10.438;2023-04-30T05:34:48;3.90;99.90
18506;DHT22;9382;53.242;10.438;2023-04-30T05:37:15;4.00;99.90
18506;DHT22;9382;53.242;10.438;2023-04-30T05:39:43;4.00;99.90
18506;DHT22;9382;53.242;10.438;2023-04-30T05:42:11;4.10;99.90
18506;DHT22;9382;53.242;10.438;2023-04-30T05:44:39;4.20;99.90
18506;DHT22;9382;53.242;10.438;2023-04-30T05:47:05;4.30;99.90
18506;DHT22;9382;53.242;10.438;2023-04-30T05:49:32;4.40;99.90
18506;DHT22;9382;53.242;10.438;2023-04-30T05:51:59;4.50;99.90
18506;DHT22;9382;53.242;10.438;2023-04-30T05:54:26;4.60;99.90
18506;DHT22;9382;53.242;10.438;2023-04-30T05:56:53;4.70;99.90
18506;DHT22;9382;53.242;10.438;2023-04-30T05:59:21;4.90;99.90
18506;DHT22;9382;53.242;10.438;2023-04-30T06:01:48;5.00;99.90
18506;DHT22;9382;53.242;10.438;2023-04-30T06:04:15;5.20;99.90
18506;DHT22;9382;53.242;10.438;2023-04-30T06:06:42;5.30;99.90
18506;DHT22;9382;53.242;10.438;2023-04-30T06:09:09;5.40;99.90
18506;DHT22;9382;53.242;10.438;2023-04-30T06:11:36;5.50;99.90
18506;DHT22;9382;53.242;10.438;2023-04-30T06:14:03;5.70;99.90
18506;DHT22;9382;53.242;10.438;2023-04-30T06:16:31;5.90;99.90
18506;DHT22;9382;53.242;10.438;2023-04-30T06:18:58;6.00;99.90
18506;DHT22;9382;53.242;10.438;2023-04-30T06:21:24;6.10;99.90
18506;DHT22;9382;53.242;10.438;2023-04-30T06:23:51;6.30;99.90
18506;DHT22;9382;53.242;10.438;2023-04-30T06:26:18;6.40;99.90
18506;DHT22;9382;53.242;10.438;2023-04-30T06:28:45;6.50;99.90
18506;DHT22;9382;53.242;10.438;2023-04-30T06:31:12;6.60;99.90
18506;DHT22;9382;53.242;10.438;2023-04-30T06:33:40;6.60;99.90
18506;DHT22;9382;53.242;10.438;2023-04-30T06:36:06;6.70;99.90
18506;DHT22;9382;53.242;10.438;2023-04-30T06:38:33;6.80;99.90
18506;DHT22;9382;53.242;10.438;2023-04-30T06:41:00;7.00;99.90
18506;DHT22;9382;53.242;10.438;2023-04-30T06:43:27;7.20;99.90
18506;DHT22;9382;53.242;10.438;2023-04-30T06:45:53;7.30;99.90
18506;DHT22;9382;53.242;10.438;2023-04-30T06:48:20;7.40;99.90
18506;DHT22;9382;53.242;10.438;2023-04-30T06:50:49;7.50;99.90
18506;DHT22;9382;53.242;10.438;2023-04-30T06:53:15;7.60;99.90
18506;DHT22;9382;53.242;10.438;2023-04-30T06:55:43;7.80;99.90
18506;DHT22;9382;53.242;10.438;2023-04-30T06:58:10;7.80;99.90
18506;DHT22;9382;53.242;10.438;2023-04-30T07:00:37;7.90;99.90
18506;DHT22;9382;53.242;10.438;2023-04-30T07:03:04;8.10;99.90
18506;DHT22;9382;53.242;10.438;2023-04-30T07:05:31;8.30;99.90
18506;DHT22;9382;53.242;10.438;2023-04-30T07:08:00;8.50;99.90
18506;DHT22;9382;53.242;10.438;2023-04-30T07:10:27;8.70;99.90
18506;DHT22;9382;53.242;10.438;2023-04-30T07:12:54;8.80;99.90
18506;DHT22;9382;53.242;10.438;2023-04-30T07:15:21;8.70;99.90
18506;DHT22;9382;53.242;10.438;2023-04-30T07:17:48;8.60;99.90
18506;DHT22;9382;53.242;10.438;2023-04-30T07:20:15;8.60;99.90
18506;DHT22;9382;53.242;10.438;2023-04-30T07:22:42;8.60;99.90
18506;DHT22;9382;53.242;10.438;2023-04-30T07:25:11;8.60;99.90
18506;DHT22;9382;53.242;10.438;2023-04-30T07:27:38;8.70;99.90
18506;DHT22;9382;53.242;10.438;2023-04-30T07:30:06;8.60;99.90
18506;DHT22;9382;53.242;10.438;2023-04-30T07:32:35;8.60;99.90
18506;DHT22;9382;53.242;10.438;2023-04-30T07:35:02;8.70;99.90
18506;DHT22;9382;53.242;10.438;2023-04-30T07:37:29;9.00;99.90
18506;DHT22;9382;53.242;10.438;2023-04-30T07:39:55;9.10;99.90
18506;DHT22;9382;53.242;10.438;2023-04-30T07:42:24;9.20;99.90
18506;DHT22;9382;53.242;10.438;2023-04-30T07:44:51;9.40;99.90
18506;DHT22;9382;53.242;10.438;2023-04-30T07:47:18;9.60;99.90
18506;DHT22;9382;53.242;10.438;2023-04-30T07:49:45;9.80;99.90
18506;DHT22;9382;53.242;10.438;2023-04-30T07:52:12;9.90;99.90
18506;DHT22;9382;53.242;10.438;2023-04-30T07:54:39;9.90;99.90
18506;DHT22;9382;53.242;10.438;2023-04-30T07:57:05;10.00;99.90
18506;DHT22;9382;53.242;10.438;2023-04-30T07:59:34;10.20;99.90
18506;DHT22;9382;53.242;10.438;2023-04-30T08:02:01;10.50;99.90
18506;DHT22;9382;53.242;10.438;2023-04-30T08:04:28;10.80;99.90
18506;DHT22;9382;53.242;10.438;2023-04-30T08:06:55;10.90;99.90
18506;DHT22;9382;53.242;10.438;2023-04-30T08:09:21;11.10;99.90
18506;DHT22;9382;53.242;10.438;2023-04-30T08:11:48;11.10;99.90
18506;DHT22;9382;53.242;10.438;2023-04-30T08:14:15;11.10;99.90
18506;DHT22;9382;53.242;10.438;2023-04-30T08:16:43;11.30;99.90
18506;DHT22;9382;53.242;10.438;2023-04-30T08:19:10;11.40;99.90
18506;DHT22;9382;53.242;10.438;2023-04-30T08:21:37;11.50;99.90
18506;DHT22;9382;53.242;10.438;2023-04-30T08:24:04;11.60;99.90
18506;DHT22;9382;53.242;10.438;2023-04-30T08:26:30;11.60;99.90
18506;DHT22;9382;53.242;10.438;2023-04-30T08:28:57;11.70;99.90
18506;DHT22;9382;53.242;10.438;2023-04-30T08:31:24;11.70;99.90
18506;DHT22;9382;53.242;10.438;2023-04-30T08:33:52;12.00;99.90
18506;DHT22;9382;53.242;10.438;2023-04-30T08:36:19;12.30;99.90
18506;DHT22;9382;53.242;10.438;2023-04-30T08:38:46;12.40;99.90
18506;DHT22;9382;53.242;10.438;2023-04-30T08:41:13;12.60;99.90
18506;DHT22;9382;53.242;10.438;2023-04-30T08:43:43;12.60;99.90
18506;DHT22;9382;53.242;10.438;2023-04-30T08:46:11;12.60;99.90
18506;DHT22;9382;53.242;10.438;2023-04-30T08:48:40;12.30;99.90
18506;DHT22;9382;53.242;10.438;2023-04-30T08:51:08;11.60;99.90
18506;DHT22;9382;53.242;10.438;2023-04-30T08:53:35;11.00;99.90
18506;DHT22;9382;53.242;10.438;2023-04-30T08:56:03;11.00;99.90
18506;DHT22;9382;53.242;10.438;2023-04-30T08:58:30;11.30;99.90
18506;DHT22;9382;53.242;10.438;2023-04-30T09:00:57;11.80;99.90
18506;DHT22;9382;53.242;10.438;2023-04-30T09:03:24;12.20;99.90
18506;DHT22;9382;53.242;10.438;2023-04-30T09:05:53;12.20;99.90
18506;DHT22;9382;53.242;10.438;2023-04-30T09:08:40;12.20;99.90
18506;DHT22;9382;53.242;10.438;2023-04-30T09:11:19;12.80;99.90
18506;DHT22;9382;53.242;10.438;2023-04-30T09:13:47;13.00;99.90
18506;DHT22;9382;53.242;10.438;2023-04-30T09:16:14;13.70;99.90
18506;DHT22;9382;53.242;10.438;2023-04-30T09:18:41;13.40;99.90
18506;DHT22;9382;53.242;10.438;2023-04-30T09:21:08;12.80;99.90
18506;DHT22;9382;53.242;10.438;2023-04-30T09:23:36;12.40;99.90
18506;DHT22;9382;53.242;10.438;2023-04-30T09:26:20;12.40;99.90
18506;DHT22;9382;53.242;10.438;2023-04-30T09:28:54;12.80;99.90
18506;DHT22;9382;53.242;10.438;2023-04-30T09:31:21;13.30;99.90
18506;DHT22;9382;53.242;10.438;2023-04-30T09:33:49;13.50;99.90
18506;DHT22;9382;53.242;10.438;2023-04-30T09:36:16;13.70;99.90
18506;DHT22;9382;53.242;10.438;2023-04-30T09:38:44;14.00;99.90
18506;DHT22;9382;53.242;10.438;2023-04-30T09:41:20;14.10;99.90
18506;DHT22;9382;53.242;10.438;2023-04-30T09:43:48;14.40;99.90
18506;DHT22;9382;53.242;10.438;2023-04-30T09:46:18;14.50;99.90
18506;DHT22;9382;53.242;10.438;2023-04-30T09:48:45;14.90;99.90
18506;DHT22;9382;53.242;10.438;2023-04-30T09:51:11;15.00;99.90
18506;DHT22;9382;53.242;10.438;2023-04-30T09:53:41;14.40;99.90
18506;DHT22;9382;53.242;10.438;2023-04-30T09:56:11;14.50;99.90
18506;DHT22;9382;53.242;10.438;2023-04-30T09:58:43;14.40;99.90
18506;DHT22;9382;53.242;10.438;2023-04-30T10:01:10;14.70;99.90
18506;DHT22;9382;53.242;10.438;2023-04-30T10:03:39;15.10;99.90
18506;DHT22;9382;53.242;10.438;2023-04-30T10:06:07;15.20;99.90
18506;DHT22;9382;53.242;10.438;2023-04-30T10:08:39;14.90;99.90
18506;DHT22;9382;53.242;10.438;2023-04-30T10:11:09;14.70;99.90
18506;DHT22;9382;53.242;10.438;2023-04-30T10:13:42;14.80;99.90
18506;DHT22;9382;53.242;10.438;2023-04-30T10:16:15;15.20;99.90
18506;DHT22;9382;53.242;10.438;2023-04-30T10:18:45;14.90;99.90
18506;DHT22;9382;53.242;10.438;2023-04-30T10:21:16;14.50;99.90
18506;DHT22;9382;53.242;10.438;2023-04-30T10:23:43;14.50;99.90
18506;DHT22;9382;53.242;10.438;2023-04-30T10:26:13;14.50;99.90
18506;DHT22;9382;53.242;10.438;2023-04-30T10:28:41;14.80;99.90
18506;DHT22;9382;53.242;10.438;2023-04-30T10:31:08;15.30;99.90
18506;DHT22;9382;53.242;10.438;2023-04-30T10:33:41;15.50;99.90
18506;DHT22;9382;53.242;10.438;2023-04-30T10:36:21;15.20;99.90
18506;DHT22;9382;53.242;10.438;2023-04-30T10:38:49;15.10;99.90
18506;DHT22;9382;53.242;10.438;2023-04-30T10:41:19;15.30;99.90
18506;DHT22;9382;53.242;10.438;2023-04-30T10:43:46;15.60;99.90
18506;DHT22;9382;53.242;10.438;2023-04-30T10:46:21;15.80;99.90
18506;DHT22;9382;53.242;10.438;2023-04-30T10:48:48;16.10;99.90
18506;DHT22;9382;53.242;10.438;2023-04-30T10:51:15;16.20;99.90
18506;DHT22;9382;53.242;10.438;2023-04-30T10:53:42;16.30;99.90
18506;DHT22;9382;53.242;10.438;2023-04-30T10:56:10;16.40;99.90
18506;DHT22;9382;53.242;10.438;2023-04-30T10:58:39;16.20;99.90
18506;DHT22;9382;53.242;10.438;2023-04-30T11:01:11;15.90;99.90
18506;DHT22;9382;53.242;10.438;2023-04-30T11:03:40;16.10;99.90
18506;DHT22;9382;53.242;10.438;2023-04-30T11:06:10;16.20;99.90
18506;DHT22;9382;53.242;10.438;2023-04-30T11:08:39;16.30;99.90
18506;DHT22;9382;53.242;10.438;2023-04-30T11:11:08;16.50;99.90
18506;DHT22;9382;53.242;10.438;2023-04-30T11:13:40;16.60;99.90
18506;DHT22;9382;53.242;10.438;2023-04-30T11:16:07;17.00;99.90
18506;DHT22;9382;53.242;10.438;2023-04-30T11:18:40;17.20;99.90
18506;DHT22;9382;53.242;10.438;2023-04-30T11:21:08;17.30;99.90
18506;DHT22;9382;53.242;10.438;2023-04-30T11:23:35;17.00;99.90
18506;DHT22;9382;53.242;10.438;2023-04-30T11:26:01;16.80;99.90
18506;DHT22;9382;53.242;10.438;2023-04-30T11:28:31;17.20;99.90
18506;DHT22;9382;53.242;10.438;2023-04-30T11:31:00;17.60;99.90
18506;DHT22;9382;53.242;10.438;2023-04-30T11:33:28;18.10;99.90
18506;DHT22;9382;53.242;10.438;2023-04-30T11:35:56;18.40;99.90
18506;DHT22;9382;53.242;10.438;2023-04-30T11:38:26;18.20;99.90
18506;DHT22;9382;53.242;10.438;2023-04-30T11:40:53;18.50;99.90
18506;DHT22;9382;53.242;10.438;2023-04-30T11:43:21;18.50;99.90
18506;DHT22;9382;53.242;10.438;2023-04-30T11:46:09;18.80;99.90
18506;DHT22;9382;53.242;10.438;2023-04-30T11:48:36;19.30;99.90
18506;DHT22;9382;53.242;10.438;2023-04-30T11:51:05;19.70;98.40
18506;DHT22;9382;53.242;10.438;2023-04-30T11:53:39;19.60;97.80
18506;DHT22;9382;53.242;10.438;2023-04-30T11:56:06;19.90;98.70
18506;DHT22;9382;53.242;10.438;2023-04-30T11:58:34;19.90;93.40
18506;DHT22;9382;53.242;10.438;2023-04-30T12:01:02;20.00;99.20
18506;DHT22;9382;53.242;10.438;2023-04-30T12:03:31;20.30;98.50
18506;DHT22;9382;53.242;10.438;2023-04-30T12:05:57;20.60;93.80
18506;DHT22;9382;53.242;10.438;2023-04-30T12:08:26;20.90;96.60
18506;DHT22;9382;53.242;10.438;2023-04-30T12:10:52;21.70;98.60
18506;DHT22;9382;53.242;10.438;2023-04-30T12:13:19;22.30;92.10
18506;DHT22;9382;53.242;10.438;2023-04-30T12:15:57;22.30;91.70
18506;DHT22;9382;53.242;10.438;2023-04-30T12:18:24;22.30;92.50
18506;DHT22;9382;53.242;10.438;2023-04-30T12:20:53;22.40;88.50
18506;DHT22;9382;53.242;10.438;2023-04-30T12:23:20;21.20;89.00
18506;DHT22;9382;53.242;10.438;2023-04-30T12:25:47;21.70;92.50
18506;DHT22;9382;53.242;10.438;2023-04-30T12:28:13;22.00;89.10
18506;DHT22;9382;53.242;10.438;2023-04-30T12:30:41;22.00;93.90
18506;DHT22;9382;53.242;10.438;2023-04-30T12:33:09;22.50;84.30
18506;DHT22;9382;53.242;10.438;2023-04-30T12:35:40;22.70;91.00
18506;DHT22;9382;53.242;10.438;2023-04-30T12:38:08;23.50;94.00
18506;DHT22;9382;53.242;10.438;2023-04-30T12:40:35;24.60;93.30
18506;DHT22;9382;53.242;10.438;2023-04-30T12:43:03;25.50;90.70
18506;DHT22;9382;53.242;10.438;2023-04-30T12:45:47;25.90;79.50
18506;DHT22;9382;53.242;10.438;2023-04-30T12:48:16;26.00;86.60
18506;DHT22;9382;53.242;10.438;2023-04-30T12:50:46;26.30;84.50
18506;DHT22;9382;53.242;10.438;2023-04-30T12:53:15;26.50;82.80
18506;DHT22;9382;53.242;10.438;2023-04-30T12:55:42;27.10;83.10
18506;DHT22;9382;53.242;10.438;2023-04-30T12:58:10;27.40;81.40
18506;DHT22;9382;53.242;10.438;2023-04-30T13:00:46;27.40;69.80
18506;DHT22;9382;53.242;10.438;2023-04-30T13:03:13;27.30;74.30
18506;DHT22;9382;53.242;10.438;2023-04-30T13:05:41;26.70;68.50
18506;DHT22;9382;53.242;10.438;2023-04-30T13:08:08;26.80;74.80
18506;DHT22;9382;53.242;10.438;2023-04-30T13:10:36;27.20;73.00
18506;DHT22;9382;53.242;10.438;2023-04-30T13:13:03;27.30;63.00
18506;DHT22;9382;53.242;10.438;2023-04-30T13:15:30;26.90;73.20
18506;DHT22;9382;53.242;10.438;2023-04-30T13:17:57;27.40;72.70
18506;DHT22;9382;53.242;10.438;2023-04-30T13:20:23;28.10;74.00
18506;DHT22;9382;53.242;10.438;2023-04-30T13:22:51;28.40;76.10
18506;DHT22;9382;53.242;10.438;2023-04-30T13:25:18;28.30;64.00
18506;DHT22;9382;53.242;10.438;2023-04-30T13:27:46;27.60;60.50
18506;DHT22;9382;53.242;10.438;2023-04-30T13:30:13;27.60;62.40
18506;DHT22;9382;53.242;10.438;2023-04-30T13:32:40;27.70;70.20
18506;DHT22;9382;53.242;10.438;2023-04-30T13:35:08;27.50;66.20
18506;DHT22;9382;53.242;10.438;2023-04-30T13:37:35;27.80;66.30
18506;DHT22;9382;53.242;10.438;2023-04-30T13:40:03;28.20;64.60
18506;DHT22;9382;53.242;10.438;2023-04-30T13:42:31;28.60;61.30
18506;DHT22;9382;53.242;10.438;2023-04-30T13:44:59;28.60;60.60
18506;DHT22;9382;53.242;10.438;2023-04-30T13:47:25;28.20;57.00
18506;DHT22;9382;53.242;10.438;2023-04-30T13:49:52;27.00;59.20
18506;DHT22;9382;53.242;10.438;2023-04-30T13:52:19;27.30;60.20
18506;DHT22;9382;53.242;10.438;2023-04-30T13:54:46;27.10;58.80
18506;DHT22;9382;53.242;10.438;2023-04-30T13:57:12;28.00;66.10
18506;DHT22;9382;53.242;10.438;2023-04-30T13:59:39;28.80;60.30
18506;DHT22;9382;53.242;10.438;2023-04-30T14:02:07;28.80;60.70
18506;DHT22;9382;53.242;10.438;2023-04-30T14:04:34;28.90;58.10
18506;DHT22;9382;53.242;10.438;2023-04-30T14:07:01;29.10;60.60
18506;DHT22;9382;53.242;10.438;2023-04-30T14:09:28;29.60;63.00
18506;DHT22;9382;53.242;10.438;2023-04-30T14:11:55;29.80;57.40
18506;DHT22;9382;53.242;10.438;2023-04-30T14:14:23;30.10;62.60
18506;DHT22;9382;53.242;10.438;2023-04-30T14:16:50;30.30;56.80
18506;DHT22;9382;53.242;10.438;2023-04-30T14:19:18;30.30;55.10
18506;DHT22;9382;53.242;10.438;2023-04-30T14:21:45;30.70;56.50
18506;DHT22;9382;53.242;10.438;2023-04-30T14:24:12;29.50;57.20
18506;DHT22;9382;53.242;10.438;2023-04-30T14:26:41;29.80;59.30
18506;DHT22;9382;53.242;10.438;2023-04-30T14:29:07;30.10;58.50
18506;DHT22;9382;53.242;10.438;2023-04-30T14:31:34;30.00;54.30
18506;DHT22;9382;53.242;10.438;2023-04-30T14:34:01;30.30;56.70
18506;DHT22;9382;53.242;10.438;2023-04-30T14:36:29;30.40;61.30
18506;DHT22;9382;53.242;10.438;2023-04-30T14:38:56;30.80;59.40
18506;DHT22;9382;53.242;10.438;2023-04-30T14:41:23;31.20;55.80
18506;DHT22;9382;53.242;10.438;2023-04-30T14:43:50;31.50;56.30
18506;DHT22;9382;53.242;10.438;2023-04-30T14:46:17;31.80;57.00
18506;DHT22;9382;53.242;10.438;2023-04-30T14:48:44;31.90;52.90
18506;DHT22;9382;53.242;10.438;2023-04-30T14:51:10;31.80;56.60
18506;DHT22;9382;53.242;10.438;2023-04-30T14:53:38;31.70;50.70
18506;DHT22;9382;53.242;10.438;2023-04-30T14:56:06;30.70;51.20
18506;DHT22;9382;53.242;10.438;2023-04-30T14:58:32;30.90;55.80
18506;DHT22;9382;53.242;10.438;2023-04-30T15:00:59;31.30;57.40
18506;DHT22;9382;53.242;10.438;2023-04-30T15:03:26;31.70;56.40
18506;DHT22;9382;53.242;10.438;2023-04-30T15:05:53;32.30;55.60
18506;DHT22;9382;53.242;10.438;2023-04-30T15:08:20;32.80;55.10
18506;DHT22;9382;53.242;10.438;2023-04-30T15:10:48;32.90;49.40
18506;DHT22;9382;53.242;10.438;2023-04-30T15:13:15;31.80;55.20
18506;DHT22;9382;53.242;10.438;2023-04-30T15:15:42;31.30;50.90
18506;DHT22;9382;53.242;10.438;2023-04-30T15:18:11;31.30;54.80
18506;DHT22;9382;53.242;10.438;2023-04-30T15:20:38;31.70;55.90
18506;DHT22;9382;53.242;10.438;2023-04-30T15:23:05;31.70;51.10
18506;DHT22;9382;53.242;10.438;2023-04-30T15:25:32;31.70;50.20
18506;DHT22;9382;53.242;10.438;2023-04-30T15:28:00;31.60;53.00
18506;DHT22;9382;53.242;10.438;2023-04-30T15:30:27;31.70;53.00
18506;DHT22;9382;53.242;10.438;2023-04-30T15:32:54;32.00;53.80
18506;DHT22;9382;53.242;10.438;2023-04-30T15:35:21;32.50;54.90
18506;DHT22;9382;53.242;10.438;2023-04-30T15:37:48;32.50;53.90
18506;DHT22;9382;53.242;10.438;2023-04-30T15:40:15;32.50;53.10
18506;DHT22;9382;53.242;10.438;2023-04-30T15:42:42;32.60;53.60
18506;DHT22;9382;53.242;10.438;2023-04-30T15:45:10;32.40;53.70